Time;durP1;ratioP1;P1;durP2;ratioP2;P2;SDS_P1;SDS_P2;PMS_P1;PMS_P2;Temp;Humidity;BMP_temperature;BMP_pressure;BME280_temperature;BME280_humidity;BME280_pressure;Samples;Min_cycle;Max_cycle;Signal;HPM_P1;HPM_P2
2023/06/15 00:01:40;;;;;;;8.85;4.90;;;16.60;82.60;;;;;;5112953;28;20371;-66
2023/06/15 00:04:06;;;;;;;9.00;4.65;;;16.60;82.90;;;;;;5112912;28;20028;-67
2023/06/15 00:06:32;;;;;;;8.18;4.70;;;16.60;83.10;;;;;;5112917;28;20108;-67
2023/06/15 00:08:58;;;;;;;8.02;4.22;;;16.50;83.00;;;;;;5112987;28;20039;-67
2023/06/15 00:11:24;;;;;;;7.15;4.85;;;16.50;82.60;;;;;;5112502;28;20031;-66
2023/06/15 00:13:50;;;;;;;9.02;4.80;;;16.50;82.40;;;;;;5112821;28;20376;-67
2023/06/15 00:16:18;;;;;;;8.38;4.90;;;16.40;82.20;;;;;;5115120;28;20028;-67
2023/06/15 00:18:47;;;;;;;7.22;4.97;;;16.40;82.30;;;;;;5112989;28;20049;-66
2023/06/15 00:21:16;;;;;;;7.57;5.00;;;16.30;82.40;;;;;;5112500;28;20026;-67
2023/06/15 00:23:44;;;;;;;6.32;4.90;;;16.40;82.10;;;;;;5112844;28;20030;-66
2023/06/15 00:26:10;;;;;;;7.60;4.75;;;16.30;82.20;;;;;;5112731;28;20031;-66
2023/06/15 00:28:35;;;;;;;5.40;4.38;;;16.30;82.60;;;;;;5114331;28;20030;-67
2023/06/15 00:31:01;;;;;;;11.18;5.22;;;16.30;82.80;;;;;;5132895;28;20059;-66
2023/06/15 00:33:27;;;;;;;5.63;4.68;;;16.30;82.80;;;;;;5132988;28;20379;-66
2023/06/15 00:35:52;;;;;;;7.10;5.07;;;16.30;82.50;;;;;;5133432;28;20458;-66
2023/06/15 00:38:18;;;;;;;6.90;5.13;;;16.30;82.90;;;;;;5132796;28;20023;-66
2023/06/15 00:40:45;;;;;;;9.00;4.80;;;16.20;83.10;;;;;;5135156;27;20050;-66
2023/06/15 00:43:10;;;;;;;12.85;5.43;;;16.20;83.30;;;;;;5137086;27;20443;-66
2023/06/15 00:45:36;;;;;;;8.18;6.78;;;16.20;83.60;;;;;;5136336;27;20115;-66
2023/06/15 00:48:02;;;;;;;11.38;6.65;;;16.10;83.70;;;;;;5137087;27;20027;-66
2023/06/15 00:50:31;;;;;;;26.60;13.30;;;16.10;84.00;;;;;;5136517;27;20030;-67
2023/06/15 00:53:00;;;;;;;40.53;16.88;;;16.10;84.40;;;;;;5136679;27;20365;-68
2023/06/15 00:55:27;;;;;;;28.80;13.30;;;16.10;84.70;;;;;;5136510;27;20035;-68
2023/06/15 00:57:54;;;;;;;17.95;9.07;;;16.10;85.20;;;;;;5137031;27;20031;-68
2023/06/15 01:00:20;;;;;;;17.63;7.97;;;16.00;85.50;;;;;;5137311;27;20031;-68
2023/06/15 01:02:48;;;;;;;10.40;6.60;;;16.00;85.90;;;;;;5138602;27;20027;-68
2023/06/15 01:05:16;;;;;;;8.45;5.72;;;16.10;85.90;;;;;;5138175;27;20106;-67
2023/06/15 01:07:46;;;;;;;18.17;6.93;;;16.00;86.10;;;;;;5138718;27;20027;-67
2023/06/15 01:10:14;;;;;;;12.38;6.38;;;16.00;86.30;;;;;;5119378;27;20118;-67
2023/06/15 01:12:41;;;;;;;9.52;5.78;;;16.00;86.50;;;;;;5136319;27;20045;-67
2023/06/15 01:15:10;;;;;;;8.90;6.15;;;16.00;86.70;;;;;;5136805;27;20027;-68
2023/06/15 01:17:45;;;;;;;13.43;5.60;;;16.00;86.60;;;;;;5137803;27;20486;-67
2023/06/15 01:20:24;;;;;;;8.70;5.70;;;16.00;86.80;;;;;;5137083;27;20023;-66
2023/06/15 01:23:10;;;;;;;9.60;5.63;;;16.00;86.80;;;;;;5136480;27;20054;-67
2023/06/15 01:25:45;;;;;;;6.90;5.22;;;15.90;86.80;;;;;;5136039;27;20030;-66
2023/06/15 01:28:15;;;;;;;9.60;5.50;;;15.80;87.30;;;;;;5134686;27;20365;-67
2023/06/15 01:30:42;;;;;;;8.15;5.03;;;15.80;88.00;;;;;;5115248;28;20028;-66
2023/06/15 01:33:08;;;;;;;10.57;5.22;;;15.70;88.10;;;;;;5115794;28;20047;-66
2023/06/15 01:35:34;;;;;;;7.32;4.97;;;15.70;88.40;;;;;;5115296;28;20028;-67
2023/06/15 01:38:00;;;;;;;6.60;5.00;;;15.70;88.40;;;;;;5115526;28;20456;-67
2023/06/15 01:40:27;;;;;;;10.10;5.30;;;15.60;88.10;;;;;;5115121;28;20032;-66
2023/06/15 01:42:52;;;;;;;6.90;5.25;;;15.60;88.20;;;;;;5115585;28;20384;-67
2023/06/15 01:45:20;;;;;;;10.82;4.97;;;15.60;88.80;;;;;;5115269;28;20040;-66
2023/06/15 01:47:48;;;;;;;8.07;5.10;;;15.60;87.90;;;;;;5115507;28;20080;-67
2023/06/15 01:50:15;;;;;;;7.22;4.25;;;15.60;87.90;;;;;;5115383;28;20427;-66
2023/06/15 01:52:41;;;;;;;6.32;5.22;;;15.60;88.20;;;;;;5114520;28;20028;-67
2023/06/15 01:55:07;;;;;;;10.90;5.53;;;15.50;88.30;;;;;;5114829;28;20028;-66
2023/06/15 01:57:40;;;;;;;8.60;5.45;;;15.50;88.70;;;;;;5114679;28;20027;-67
2023/06/15 02:00:08;;;;;;;5.82;5.00;;;15.50;88.60;;;;;;5115419;28;20024;-66
2023/06/15 02:02:33;;;;;;;8.68;5.30;;;15.50;88.40;;;;;;5114276;28;20027;-67
2023/06/15 02:05:01;;;;;;;8.90;5.53;;;15.50;88.40;;;;;;5114980;28;20064;-67
2023/06/15 02:07:27;;;;;;;7.63;5.03;;;15.50;88.50;;;;;;5114819;28;20080;-66
2023/06/15 02:09:53;;;;;;;8.15;5.68;;;15.50;88.50;;;;;;5114901;28;20024;-66
2023/06/15 02:12:18;;;;;;;7.90;5.38;;;15.60;88.70;;;;;;5114772;28;20069;-66
2023/06/15 02:14:49;;;;;;;8.95;5.65;;;15.60;88.60;;;;;;5114400;28;20028;-66
2023/06/15 02:17:16;;;;;;;8.60;5.72;;;15.60;89.30;;;;;;5114865;28;20026;-66
2023/06/15 02:19:45;;;;;;;6.63;5.53;;;15.50;89.20;;;;;;5114660;27;20044;-66
2023/06/15 02:22:11;;;;;;;8.13;6.10;;;15.50;89.50;;;;;;5133206;27;20035;-66
2023/06/15 02:24:36;;;;;;;7.65;5.63;;;15.50;89.90;;;;;;5134784;27;20030;-66
2023/06/15 02:27:02;;;;;;;9.05;5.10;;;15.50;89.80;;;;;;5135163;27;20027;-66
2023/06/15 02:29:28;;;;;;;6.55;5.80;;;15.50;89.80;;;;;;5124344;27;20039;-66
2023/06/15 02:31:53;;;;;;;6.53;5.50;;;15.50;89.90;;;;;;5096462;28;20035;-66
2023/06/15 02:34:20;;;;;;;9.02;5.30;;;15.50;90.10;;;;;;5114363;28;20042;-66
2023/06/15 02:36:48;;;;;;;9.27;5.43;;;15.50;90.10;;;;;;5114193;28;20110;-66
2023/06/15 02:39:14;;;;;;;8.68;5.63;;;15.50;90.20;;;;;;5114745;28;20376;-66
2023/06/15 02:41:40;;;;;;;6.47;5.35;;;15.50;90.00;;;;;;5096052;28;20131;-66
2023/06/15 02:44:07;;;;;;;8.93;5.70;;;15.50;90.20;;;;;;5114546;28;20531;-66
2023/06/15 02:46:33;;;;;;;6.30;4.78;;;15.40;90.10;;;;;;5113964;28;20488;-66
2023/06/15 02:48:58;;;;;;;12.68;5.65;;;15.40;90.60;;;;;;5114363;28;20036;-66
2023/06/15 02:51:24;;;;;;;7.72;5.50;;;15.30;90.70;;;;;;5114036;28;20032;-67
2023/06/15 02:53:50;;;;;;;8.30;5.32;;;15.30;90.80;;;;;;5114525;28;20032;-66
2023/06/15 02:56:20;;;;;;;9.07;5.43;;;15.30;90.90;;;;;;5114560;28;20421;-66
2023/06/15 02:58:54;;;;;;;7.45;5.25;;;15.30;90.90;;;;;;5113304;28;20536;-66
2023/06/15 03:01:24;;;;;;;8.88;5.35;;;15.20;90.80;;;;;;5114019;28;20035;-66
2023/06/15 03:03:50;;;;;;;7.40;4.88;;;15.20;91.00;;;;;;5113616;28;20069;-66
2023/06/15 03:06:16;;;;;;;7.70;5.47;;;15.20;90.90;;;;;;5113749;28;20027;-66
2023/06/15 03:08:42;;;;;;;8.50;4.68;;;15.20;90.80;;;;;;5113588;28;20023;-66
2023/06/15 03:11:09;;;;;;;6.68;5.15;;;15.20;90.90;;;;;;5113307;28;20548;-66
2023/06/15 03:13:35;;;;;;;5.97;5.15;;;15.20;91.20;;;;;;5113296;28;20076;-66
2023/06/15 03:16:01;;;;;;;8.40;5.30;;;15.00;91.30;;;;;;5113501;28;20027;-66
2023/06/15 03:18:30;;;;;;;11.80;6.05;;;15.00;91.50;;;;;;5113190;28;20032;-66
2023/06/15 03:20:57;;;;;;;9.32;6.15;;;15.00;91.60;;;;;;5113447;28;20034;-67
2023/06/15 03:23:23;;;;;;;7.05;5.57;;;15.00;91.70;;;;;;5113487;28;20093;-67
2023/06/15 03:25:52;;;;;;;9.82;5.20;;;15.10;91.80;;;;;;5113029;28;20024;-67
2023/06/15 03:28:24;;;;;;;11.15;5.60;;;15.10;91.80;;;;;;5113503;28;20056;-67
2023/06/15 03:30:53;;;;;;;7.20;5.03;;;15.10;91.70;;;;;;5113100;28;20023;-67
2023/06/15 03:33:22;;;;;;;6.90;4.95;;;15.10;91.60;;;;;;5113255;28;20023;-67
2023/06/15 03:35:53;;;;;;;8.52;5.65;;;15.10;91.70;;;;;;5114107;27;20041;-67
2023/06/15 03:38:19;;;;;;;7.38;5.13;;;15.10;91.60;;;;;;5133423;27;20387;-67
2023/06/15 03:40:45;;;;;;;8.07;4.88;;;15.10;91.80;;;;;;5133271;27;20027;-67
2023/06/15 03:43:11;;;;;;;8.05;5.07;;;15.10;91.60;;;;;;5133452;27;20042;-67
2023/06/15 03:45:38;;;;;;;7.15;5.40;;;15.10;91.60;;;;;;5133361;27;20133;-67
2023/06/15 03:48:04;;;;;;;7.35;5.90;;;15.10;92.10;;;;;;5133865;27;20034;-67
2023/06/15 03:50:29;;;;;;;7.90;5.47;;;15.10;92.00;;;;;;5133523;27;20091;-67
2023/06/15 03:52:55;;;;;;;9.88;5.38;;;15.10;92.10;;;;;;5134381;27;20039;-67
2023/06/15 03:55:20;;;;;;;7.05;5.47;;;15.10;92.30;;;;;;5134798;28;20544;-67
2023/06/15 03:57:47;;;;;;;7.07;5.45;;;15.10;92.40;;;;;;5133672;28;20106;-67
2023/06/15 04:00:13;;;;;;;7.72;5.22;;;15.10;92.50;;;;;;5115547;28;20034;-67
2023/06/15 04:02:40;;;;;;;8.45;5.75;;;15.10;92.30;;;;;;5133567;28;20035;-67
2023/06/15 04:05:06;;;;;;;7.60;5.63;;;15.20;92.90;;;;;;5133527;28;20068;-67
2023/06/15 04:07:31;;;;;;;10.60;5.63;;;15.30;92.20;;;;;;5133269;28;20106;-68
2023/06/15 04:09:57;;;;;;;10.88;4.88;;;15.30;92.10;;;;;;5133622;28;20023;-67
2023/06/15 04:12:23;;;;;;;7.07;5.50;;;15.40;91.60;;;;;;5133479;28;20034;-67
2023/06/15 04:14:48;;;;;;;7.63;5.35;;;15.50;91.50;;;;;;5135059;27;20062;-67
2023/06/15 04:17:15;;;;;;;11.20;5.85;;;15.60;91.30;;;;;;5137382;27;20067;-67
2023/06/15 04:19:40;;;;;;;12.38;5.60;;;15.70;91.10;;;;;;5137193;27;20057;-67
2023/06/15 04:22:06;;;;;;;11.30;5.82;;;15.80;91.10;;;;;;5137189;27;20054;-67
2023/06/15 04:24:32;;;;;;;8.88;5.75;;;15.90;90.80;;;;;;5135426;27;20029;-67
2023/06/15 04:26:57;;;;;;;9.90;6.38;;;15.90;90.20;;;;;;5134443;27;20026;-67
2023/06/15 04:29:23;;;;;;;9.18;5.63;;;16.00;90.30;;;;;;5116496;28;20024;-67
2023/06/15 04:31:55;;;;;;;9.05;5.30;;;16.10;90.30;;;;;;5116256;28;20100;-67
2023/06/15 04:34:24;;;;;;;8.70;5.70;;;16.20;90.10;;;;;;5116439;28;20092;-67
2023/06/15 04:36:50;;;;;;;7.40;5.60;;;16.40;90.00;;;;;;5098073;28;20030;-67
2023/06/15 04:39:16;;;;;;;7.57;5.80;;;16.60;88.70;;;;;;5116742;28;20024;-67
2023/06/15 04:41:42;;;;;;;9.50;5.72;;;16.80;88.10;;;;;;5116249;28;20027;-67
2023/06/15 04:44:08;;;;;;;7.95;5.85;;;17.10;86.80;;;;;;5116550;28;20023;-67
2023/06/15 04:46:38;;;;;;;9.07;5.68;;;17.40;86.40;;;;;;5115789;28;20044;-68
2023/06/15 04:49:04;;;;;;;10.02;6.18;;;17.80;84.80;;;;;;5116549;28;20016;-67
2023/06/15 04:51:30;;;;;;;7.05;6.35;;;18.10;84.20;;;;;;5098022;28;20127;-67
2023/06/15 04:53:56;;;;;;;7.05;5.63;;;18.40;83.70;;;;;;5116232;28;20088;-66
2023/06/15 04:56:22;;;;;;;8.68;5.55;;;18.90;82.40;;;;;;5116371;28;20115;-67
2023/06/15 04:58:48;;;;;;;7.90;5.55;;;19.50;79.70;;;;;;5115649;28;20493;-67
2023/06/15 05:01:14;;;;;;;6.55;5.50;;;20.00;77.00;;;;;;5116214;28;20035;-66
2023/06/15 05:03:40;;;;;;;8.90;6.03;;;20.60;74.30;;;;;;5116085;28;20499;-67
2023/06/15 05:06:07;;;;;;;6.82;5.32;;;21.10;72.30;;;;;;5116176;28;20039;-67
2023/06/15 05:08:33;;;;;;;7.00;5.43;;;21.70;69.60;;;;;;5115445;28;20039;-70
2023/06/15 05:10:59;;;;;;;6.93;5.55;;;22.30;67.70;;;;;;5115685;28;20034;-67
2023/06/15 05:13:25;;;;;;;5.88;5.00;;;22.80;65.90;;;;;;5115888;28;20023;-67
2023/06/15 05:15:51;;;;;;;6.63;5.25;;;23.40;64.10;;;;;;5115412;28;20031;-68
2023/06/15 05:18:18;;;;;;;6.78;5.20;;;23.90;60.60;;;;;;5115822;28;20509;-68
2023/06/15 05:20:43;;;;;;;6.68;5.30;;;24.20;59.50;;;;;;5115408;28;20028;-67
2023/06/15 05:23:09;;;;;;;8.30;5.78;;;24.50;58.30;;;;;;5115640;28;20040;-67
2023/06/15 05:25:35;;;;;;;7.90;5.85;;;24.40;57.80;;;;;;5114240;28;20024;-67
2023/06/15 05:28:01;;;;;;;7.97;5.50;;;24.60;57.30;;;;;;5115591;28;20019;-67
2023/06/15 05:30:26;;;;;;;6.43;5.65;;;24.60;56.30;;;;;;5121031;27;20015;-67
2023/06/15 05:32:55;;;;;;;6.30;5.65;;;24.70;57.00;;;;;;5135593;27;20079;-67
2023/06/15 05:35:21;;;;;;;6.82;5.40;;;24.90;55.90;;;;;;5136044;27;20023;-67
2023/06/15 05:37:47;;;;;;;7.85;5.30;;;24.70;56.40;;;;;;5135340;27;20357;-67
2023/06/15 05:40:13;;;;;;;8.60;5.88;;;24.90;56.60;;;;;;5135990;27;20034;-66
2023/06/15 05:42:38;;;;;;;6.38;5.75;;;25.00;56.10;;;;;;5135485;27;20034;-68
2023/06/15 05:45:05;;;;;;;7.88;6.32;;;24.90;55.20;;;;;;5135768;27;20473;-67
2023/06/15 05:47:35;;;;;;;10.45;6.05;;;25.00;55.60;;;;;;5135980;27;20486;-66
2023/06/15 05:50:00;;;;;;;11.63;7.00;;;25.10;55.90;;;;;;5135940;27;20092;-67
2023/06/15 05:52:26;;;;;;;7.57;6.60;;;25.10;55.40;;;;;;5135757;27;20035;-67
2023/06/15 05:54:52;;;;;;;10.05;6.80;;;25.30;55.30;;;;;;5135175;27;20023;-67
2023/06/15 05:57:17;;;;;;;10.60;6.60;;;25.50;54.40;;;;;;5135831;27;20019;-68
2023/06/15 05:59:46;;;;;;;7.10;6.20;;;25.80;54.00;;;;;;5135269;27;20114;-67
2023/06/15 06:02:13;;;;;;;7.60;5.65;;;26.40;52.20;;;;;;5135731;27;20456;-67
2023/06/15 06:04:38;;;;;;;9.45;5.43;;;26.70;52.00;;;;;;5134879;27;20387;-68
2023/06/15 06:07:06;;;;;;;6.18;5.18;;;27.10;51.60;;;;;;5117351;27;20118;-66
2023/06/15 06:09:33;;;;;;;8.63;5.63;;;27.70;50.50;;;;;;5135443;27;20015;-66
2023/06/15 06:12:00;;;;;;;7.15;5.50;;;28.10;48.70;;;;;;5134918;27;20114;-67
2023/06/15 06:14:26;;;;;;;7.05;5.43;;;28.60;48.30;;;;;;5135279;27;20072;-67
2023/06/15 06:16:52;;;;;;;6.90;5.20;;;29.00;47.40;;;;;;5134870;27;20023;-67
2023/06/15 06:19:18;;;;;;;9.15;5.43;;;29.40;47.40;;;;;;5134987;27;20031;-67
2023/06/15 06:21:43;;;;;;;10.75;4.85;;;29.90;45.60;;;;;;5135070;27;20066;-67
2023/06/15 06:24:09;;;;;;;10.23;5.57;;;30.50;44.50;;;;;;5135106;27;20027;-67
2023/06/15 06:26:38;;;;;;;6.80;5.10;;;30.90;43.60;;;;;;5134193;27;20443;-67
2023/06/15 06:29:04;;;;;;;7.43;4.75;;;31.40;41.80;;;;;;5135141;27;20019;-66
2023/06/15 06:31:30;;;;;;;7.15;4.93;;;32.00;41.50;;;;;;5134933;27;20080;-66
2023/06/15 06:33:56;;;;;;;5.35;4.70;;;32.50;39.80;;;;;;5134458;27;20032;-66
2023/06/15 06:36:21;;;;;;;7.75;4.72;;;32.90;39.50;;;;;;5131120;27;20028;-66
2023/06/15 06:38:47;;;;;;;7.13;4.40;;;33.20;38.30;;;;;;5133463;27;20023;-66
2023/06/15 06:41:14;;;;;;;7.93;5.25;;;33.30;38.10;;;;;;5135311;27;20035;-67
2023/06/15 06:43:40;;;;;;;4.88;4.38;;;33.60;38.00;;;;;;5134409;27;20027;-66
2023/06/15 06:46:05;;;;;;;7.28;4.63;;;33.40;37.40;;;;;;5134686;27;20058;-67
2023/06/15 06:48:31;;;;;;;6.07;4.88;;;33.80;37.30;;;;;;5134594;27;20026;-66
2023/06/15 06:50:57;;;;;;;4.85;4.30;;;33.30;37.30;;;;;;5134124;27;20096;-67
2023/06/15 06:53:22;;;;;;;8.35;4.57;;;33.90;37.30;;;;;;5134551;27;20023;-67
2023/06/15 06:55:48;;;;;;;9.48;5.00;;;33.90;36.00;;;;;;5134304;27;20019;-67
2023/06/15 06:58:14;;;;;;;6.00;4.65;;;33.80;37.10;;;;;;5134289;27;20412;-67
2023/06/15 07:00:39;;;;;;;4.78;4.30;;;33.50;36.30;;;;;;5134166;27;20080;-67
2023/06/15 07:03:05;;;;;;;9.63;4.80;;;33.10;38.30;;;;;;5134431;27;20038;-67
2023/06/15 07:05:31;;;;;;;9.00;5.30;;;33.30;37.20;;;;;;5134321;27;20027;-67
2023/06/15 07:07:56;;;;;;;5.72;4.70;;;33.20;36.30;;;;;;5133929;27;20352;-68
2023/06/15 07:10:22;;;;;;;7.80;5.60;;;32.50;38.20;;;;;;5133960;27;20474;-67
2023/06/15 07:12:48;;;;;;;8.10;4.75;;;32.60;38.40;;;;;;5133622;27;20067;-68
2023/06/15 07:15:14;;;;;;;8.13;4.90;;;32.90;38.80;;;;;;5134033;27;20034;-67
2023/06/15 07:17:40;;;;;;;6.78;4.78;;;33.10;37.20;;;;;;5133894;27;20482;-68
2023/06/15 07:20:07;;;;;;;10.48;4.57;;;33.00;37.80;;;;;;5133653;27;20098;-68
2023/06/15 07:22:32;;;;;;;7.45;4.82;;;33.40;36.50;;;;;;5134026;27;20030;-67
2023/06/15 07:24:58;;;;;;;7.13;4.47;;;33.60;37.10;;;;;;5123262;27;20106;-68
2023/06/15 07:27:23;;;;;;;5.82;4.53;;;33.70;36.30;;;;;;5113128;28;20032;-68
2023/06/15 07:29:49;;;;;;;5.82;5.15;;;33.80;36.90;;;;;;5112741;28;20020;-67
2023/06/15 07:32:14;;;;;;;5.43;4.40;;;33.70;36.10;;;;;;5113034;28;20043;-67
2023/06/15 07:34:40;;;;;;;5.22;4.72;;;33.30;36.50;;;;;;5113197;28;20028;-67
2023/06/15 07:37:06;;;;;;;4.90;4.25;;;33.50;35.40;;;;;;5112550;28;20030;-66
2023/06/15 07:39:32;;;;;;;4.95;4.10;;;33.70;35.10;;;;;;5113357;28;20019;-66
2023/06/15 07:41:58;;;;;;;6.32;4.35;;;33.70;36.80;;;;;;5112843;28;20031;-67
2023/06/15 07:44:24;;;;;;;5.38;4.60;;;33.70;35.40;;;;;;5113202;28;20092;-66
2023/06/15 07:46:50;;;;;;;6.47;4.05;;;33.70;34.90;;;;;;5112966;28;20044;-66
2023/06/15 07:49:15;;;;;;;7.60;4.65;;;33.80;33.80;;;;;;5112853;28;20032;-67
2023/06/15 07:51:41;;;;;;;6.13;4.28;;;33.60;34.30;;;;;;5112671;28;20034;-67
2023/06/15 07:54:06;;;;;;;5.43;3.65;;;33.60;35.00;;;;;;5094314;28;20036;-67
2023/06/15 07:56:32;;;;;;;8.80;4.70;;;33.50;35.00;;;;;;5112922;28;20027;-67
2023/06/15 07:58:58;;;;;;;6.40;4.25;;;33.30;34.90;;;;;;5112207;28;20024;-66
2023/06/15 08:01:24;;;;;;;6.18;3.80;;;33.00;35.10;;;;;;5112757;28;20133;-66
2023/06/15 08:03:49;;;;;;;6.90;4.22;;;33.20;35.30;;;;;;5112315;28;20047;-66
2023/06/15 08:06:15;;;;;;;6.60;4.20;;;33.30;34.40;;;;;;5094460;28;20019;-66
2023/06/15 08:08:40;;;;;;;6.97;4.20;;;33.30;35.80;;;;;;5112464;28;20023;-66
2023/06/15 08:11:06;;;;;;;4.95;4.07;;;33.00;34.40;;;;;;5112348;28;20432;-66
2023/06/15 08:13:32;;;;;;;5.20;3.83;;;32.80;35.50;;;;;;5112684;28;20020;-66
2023/06/15 08:15:59;;;;;;;7.47;4.15;;;32.80;36.00;;;;;;5112345;28;20027;-66
2023/06/15 08:18:26;;;;;;;6.20;3.97;;;32.90;35.50;;;;;;5112781;28;20031;-66
2023/06/15 08:20:52;;;;;;;6.20;3.78;;;32.80;35.10;;;;;;5094097;28;20376;-67
2023/06/15 08:23:18;;;;;;;5.28;4.22;;;32.80;35.00;;;;;;5113024;28;20024;-66
2023/06/15 08:25:43;;;;;;;4.20;3.78;;;32.30;35.10;;;;;;5112644;28;20073;-66
2023/06/15 08:28:09;;;;;;;8.95;4.38;;;32.20;35.40;;;;;;5113608;28;20015;-68
2023/06/15 08:30:35;;;;;;;4.82;4.00;;;31.50;35.80;;;;;;5115580;28;20084;-66
2023/06/15 08:33:01;;;;;;;5.93;4.13;;;31.00;35.80;;;;;;5112061;28;20034;-66
2023/06/15 08:35:26;;;;;;;7.72;4.85;;;30.50;36.60;;;;;;5112400;28;20019;-67
2023/06/15 08:37:53;;;;;;;9.05;4.82;;;30.20;37.40;;;;;;5112221;28;20020;-67
2023/06/15 08:40:20;;;;;;;4.80;3.67;;;29.80;37.50;;;;;;5094356;28;20118;-66
2023/06/15 08:42:46;;;;;;;4.65;4.00;;;29.30;38.20;;;;;;5112260;28;20537;-67
2023/06/15 08:45:12;;;;;;;5.07;4.10;;;29.10;39.30;;;;;;5111740;28;20046;-66
2023/06/15 08:47:39;;;;;;;6.07;3.90;;;29.00;39.30;;;;;;5112282;28;20141;-67
2023/06/15 08:50:06;;;;;;;5.05;4.60;;;28.80;40.10;;;;;;5112176;28;20023;-67
2023/06/15 08:52:34;;;;;;;4.88;4.10;;;28.50;39.40;;;;;;5112415;28;20028;-67
2023/06/15 08:55:01;;;;;;;5.30;3.92;;;28.40;39.60;;;;;;5112052;28;20035;-67
2023/06/15 08:57:35;;;;;;;5.70;3.95;;;28.30;40.50;;;;;;5112321;28;20031;-67
2023/06/15 09:00:05;;;;;;;6.13;3.45;;;28.00;39.90;;;;;;5111642;28;20032;-67
2023/06/15 09:02:31;;;;;;;4.67;4.10;;;27.80;40.20;;;;;;5115223;28;20464;-67
2023/06/15 09:04:57;;;;;;;8.32;4.38;;;27.50;40.90;;;;;;5115730;28;20024;-67
2023/06/15 09:07:24;;;;;;;7.18;4.30;;;27.10;41.70;;;;;;5116152;28;20031;-67
2023/06/15 09:10:12;;;;;;;8.05;4.38;;;26.90;41.60;;;;;;5115783;28;20068;-68
2023/06/15 09:12:52;;;;;;;4.82;4.30;;;26.80;41.50;;;;;;5115965;28;20058;-67
2023/06/15 09:15:28;;;;;;;6.57;4.37;;;26.70;41.50;;;;;;5116079;28;20367;-67
2023/06/15 09:17:55;;;;;;;6.43;3.67;;;26.60;41.80;;;;;;5115166;28;20437;-67
2023/06/15 09:20:26;;;;;;;7.80;4.28;;;26.50;42.40;;;;;;5115687;28;20101;-66
2023/06/15 09:22:58;;;;;;;4.95;4.20;;;26.50;42.70;;;;;;5130162;27;20056;-67
2023/06/15 09:25:24;;;;;;;6.93;4.20;;;26.50;42.60;;;;;;5136328;27;20062;-67
2023/06/15 09:27:52;;;;;;;6.10;4.18;;;26.50;42.70;;;;;;5136210;27;20054;-67
2023/06/15 09:30:18;;;;;;;7.72;4.82;;;26.40;42.10;;;;;;5136199;27;20023;-67
2023/06/15 09:32:43;;;;;;;4.95;4.30;;;26.30;42.30;;;;;;5136080;27;20031;-67
2023/06/15 09:35:09;;;;;;;7.13;4.63;;;26.20;41.90;;;;;;5135340;27;20118;-67
2023/06/15 09:37:35;;;;;;;9.32;4.47;;;25.90;42.90;;;;;;5135906;27;20030;-66
2023/06/15 09:40:04;;;;;;;6.07;4.07;;;26.00;43.60;;;;;;5135554;27;20076;-67
2023/06/15 09:42:30;;;;;;;4.72;3.75;;;26.00;43.80;;;;;;5135769;27;20027;-67
2023/06/15 09:45:00;;;;;;;7.05;4.43;;;25.90;43.50;;;;;;5135034;27;20090;-67
2023/06/15 09:47:29;;;;;;;7.15;4.60;;;25.90;42.90;;;;;;5136048;27;20160;-67
2023/06/15 09:49:55;;;;;;;9.82;5.32;;;26.00;44.10;;;;;;5135359;27;20103;-68
2023/06/15 09:52:21;;;;;;;6.55;4.72;;;26.10;43.40;;;;;;5135357;27;20534;-67
2023/06/15 09:54:47;;;;;;;4.45;4.03;;;26.10;43.30;;;;;;5135646;27;20096;-67
2023/06/15 09:57:16;;;;;;;5.57;4.25;;;25.80;42.40;;;;;;5135200;27;20034;-67
2023/06/15 09:59:42;;;;;;;5.22;4.40;;;25.90;42.40;;;;;;5135415;27;20379;-67
2023/06/15 10:02:14;;;;;;;5.60;4.07;;;25.80;42.00;;;;;;5134591;27;20023;-67
2023/06/15 10:04:42;;;;;;;8.65;5.07;;;25.70;43.30;;;;;;5135382;27;20034;-67
2023/06/15 10:07:12;;;;;;;5.68;4.80;;;25.70;43.50;;;;;;5135038;27;20106;-67
2023/06/15 10:09:44;;;;;;;5.93;4.88;;;25.70;44.00;;;;;;5135136;27;20543;-67
2023/06/15 10:12:17;;;;;;;5.10;4.60;;;25.60;43.50;;;;;;5116258;27;20040;-67
2023/06/15 10:14:53;;;;;;;4.60;4.20;;;25.60;43.40;;;;;;5135370;27;20028;-66
2023/06/15 10:17:24;;;;;;;6.50;4.68;;;25.70;42.70;;;;;;5135133;27;20019;-67
2023/06/15 10:19:50;;;;;;;;;;;25.70;42.40;;;;;;5135725;27;20084;-66
2023/06/15 10:22:24;;;;;;;6.65;4.50;;;25.60;42.20;;;;;;5134625;27;19907;-67
2023/06/15 10:24:52;;;;;;;9.55;4.93;;;25.70;42.30;;;;;;5135068;27;20088;-67
2023/06/15 10:27:18;;;;;;;7.25;4.68;;;25.70;41.40;;;;;;5134514;27;20023;-67
2023/06/15 10:30:03;;;;;;;5.45;4.43;;;25.70;43.10;;;;;;5134776;27;20031;-67
2023/06/15 10:32:39;;;;;;;5.72;4.05;;;25.60;40.70;;;;;;5134626;27;20031;-67
2023/06/15 10:35:14;;;;;;;5.78;4.68;;;25.50;41.40;;;;;;5119568;27;20059;-67
2023/06/15 10:38:10;;;;;;;6.05;4.55;;;25.40;41.10;;;;;;5113756;28;20023;-66
2023/06/15 10:40:42;;;;;;;5.07;4.57;;;25.50;40.80;;;;;;5116893;27;20103;-67
2023/06/15 10:43:08;;;;;;;4.28;3.88;;;25.60;40.20;;;;;;5113414;28;20032;-67
2023/06/15 10:45:34;;;;;;;5.60;4.05;;;25.70;40.50;;;;;;5113692;28;20050;-67
2023/06/15 10:48:02;;;;;;;5.05;4.25;;;25.70;41.10;;;;;;5113258;28;20080;-66
2023/06/15 10:50:43;;;;;;;4.85;4.30;;;25.70;39.00;;;;;;5113616;28;20063;-67
2023/06/15 10:53:25;;;;;;;6.55;3.80;;;25.60;39.70;;;;;;5113452;28;20035;-67
2023/06/15 10:55:55;;;;;;;4.82;4.05;;;25.60;40.50;;;;;;5113583;28;20361;-67
2023/06/15 10:58:22;;;;;;;5.93;3.97;;;25.70;40.10;;;;;;5113312;28;20034;-66
2023/06/15 11:01:16;;;;;;;5.65;4.30;;;25.60;39.60;;;;;;5113384;28;20112;-67
2023/06/15 11:03:43;;;;;;;5.18;4.45;;;25.70;41.50;;;;;;5113717;28;20027;-67
2023/06/15 11:06:18;;;;;;;5.97;3.97;;;25.70;42.10;;;;;;5113362;28;20027;-66
2023/06/15 11:08:49;;;;;;;7.38;3.70;;;25.80;41.70;;;;;;5113676;28;20027;-66
2023/06/15 11:11:36;;;;;;;8.10;5.45;;;25.60;41.00;;;;;;5113040;28;20028;-66
2023/06/15 11:14:06;;;;;;;5.53;4.57;;;25.70;42.10;;;;;;5112262;28;20067;-66
2023/06/15 11:16:34;;;;;;;5.30;4.30;;;25.70;43.10;;;;;;5113464;28;20031;-66
2023/06/15 11:19:11;;;;;;;6.82;3.80;;;25.70;42.50;;;;;;5111128;28;20038;-67
2023/06/15 11:21:48;;;;;;;4.90;4.05;;;25.60;42.40;;;;;;5132206;27;20027;-66
2023/06/15 11:24:15;;;;;;;4.32;3.92;;;25.40;42.40;;;;;;5132962;27;20019;-66
2023/06/15 11:26:42;;;;;;;5.57;4.30;;;25.50;43.90;;;;;;5133772;27;20379;-66
2023/06/15 11:29:08;;;;;;;4.82;4.13;;;25.60;43.90;;;;;;5133514;27;20045;-66
2023/06/15 11:31:34;;;;;;;5.63;4.47;;;25.50;43.00;;;;;;5133420;27;20471;-65
2023/06/15 11:34:00;;;;;;;5.82;3.83;;;25.10;43.40;;;;;;5115126;27;20031;-66
2023/06/15 11:36:26;;;;;;;4.60;4.20;;;25.20;43.80;;;;;;5133695;27;20023;-66
2023/06/15 11:38:53;;;;;;;4.85;3.88;;;25.30;43.90;;;;;;5133754;27;20027;-65
2023/06/15 11:41:22;;;;;;;5.00;3.92;;;25.30;42.60;;;;;;5132898;27;20034;-65
2023/06/15 11:43:49;;;;;;;6.88;4.22;;;25.40;42.40;;;;;;5133225;27;20072;-66
2023/06/15 11:46:21;;;;;;;4.20;3.60;;;25.50;41.90;;;;;;5132558;27;20051;-66
2023/06/15 11:48:49;;;;;;;4.85;3.90;;;25.60;42.40;;;;;;5133527;27;20031;-66
2023/06/15 11:51:16;;;;;;;5.78;4.22;;;25.60;41.80;;;;;;5132938;27;20027;-67
2023/06/15 11:53:42;;;;;;;7.10;4.22;;;25.40;42.00;;;;;;5133557;27;20051;-66
2023/06/15 11:56:12;;;;;;;4.43;4.03;;;25.50;42.50;;;;;;5132938;28;20031;-66
2023/06/15 11:58:42;;;;;;;9.20;4.53;;;25.20;42.30;;;;;;5133346;28;20023;-66
2023/06/15 12:01:11;;;;;;;6.35;4.18;;;25.00;43.30;;;;;;5132799;28;20027;-66
2023/06/15 12:03:40;;;;;;;4.85;4.28;;;24.90;43.40;;;;;;5133017;28;20443;-66
2023/06/15 12:06:05;;;;;;;6.75;3.80;;;24.90;43.20;;;;;;5132697;28;20520;-65
2023/06/15 12:08:31;;;;;;;5.05;4.22;;;24.90;43.30;;;;;;5133217;28;20098;-66
2023/06/15 12:10:59;;;;;;;6.47;4.05;;;25.00;43.50;;;;;;5132876;28;20034;-66
2023/06/15 12:13:26;;;;;;;4.65;3.95;;;25.00;44.20;;;;;;5132856;28;20458;-66
2023/06/15 12:15:53;;;;;;;7.10;4.35;;;25.10;44.40;;;;;;5133362;28;20361;-67
2023/06/15 12:18:19;;;;;;;5.60;4.30;;;25.10;43.20;;;;;;5132738;28;20035;-67
2023/06/15 12:20:46;;;;;;;7.18;3.92;;;25.10;42.70;;;;;;5133234;28;20467;-66
2023/06/15 12:23:33;;;;;;;6.35;4.38;;;24.90;42.70;;;;;;5132800;28;20083;-67
2023/06/15 12:26:03;;;;;;;5.25;3.78;;;25.00;43.80;;;;;;5131640;28;20027;-66
2023/06/15 12:28:32;;;;;;;6.57;4.40;;;25.00;43.00;;;;;;5133287;28;20020;-67
2023/06/15 12:31:03;;;;;;;5.90;4.45;;;24.90;42.80;;;;;;5133244;28;20031;-67
2023/06/15 12:33:42;;;;;;;9.75;3.85;;;24.90;43.80;;;;;;5133404;28;20035;-67
2023/06/15 12:36:13;;;;;;;8.35;4.43;;;24.90;43.70;;;;;;5130873;27;20348;-67
2023/06/15 12:38:39;;;;;;;4.82;4.32;;;24.90;43.40;;;;;;5138399;27;20348;-66
2023/06/15 12:41:12;;;;;;;13.07;4.00;;;24.90;43.30;;;;;;5137948;27;20019;-66
2023/06/15 12:43:38;;;;;;;5.18;3.45;;;24.90;42.80;;;;;;5120178;27;20110;-66
2023/06/15 12:46:04;;;;;;;4.53;4.13;;;24.90;43.50;;;;;;5138093;27;20035;-66
2023/06/15 12:48:31;;;;;;;6.20;4.40;;;24.80;43.00;;;;;;5137574;27;20111;-67